createdAt,value
2018-05-23T00:00:15.573Z,1011.21
2018-05-23T00:01:15.566Z,1011.23
2018-05-23T00:02:15.565Z,1011.18
2018-05-23T00:03:15.569Z,1011.20
2018-05-23T00:04:15.569Z,1011.20
2018-05-23T00:05:15.567Z,1011.20
2018-05-23T00:06:15.566Z,1011.24
2018-05-23T00:07:15.560Z,1011.24
2018-05-23T00:08:15.559Z,1011.22
2018-05-23T00:09:15.559Z,1011.26
2018-05-23T00:10:15.558Z,1011.29
2018-05-23T00:11:15.561Z,1011.23
2018-05-23T00:12:15.561Z,1011.26
2018-05-23T00:13:15.561Z,1011.31
2018-05-23T00:14:15.561Z,1011.31
2018-05-23T00:15:15.555Z,1011.27
2018-05-23T00:16:15.554Z,1011.28
2018-05-23T00:17:15.558Z,1011.27
2018-05-23T00:18:15.557Z,1011.25
2018-05-23T00:19:15.551Z,1011.29
2018-05-23T00:20:15.552Z,1011.32
2018-05-23T00:21:15.551Z,1011.31
2018-05-23T00:22:15.554Z,1011.29
2018-05-23T00:23:15.552Z,1011.27
2018-05-23T00:24:15.551Z,1011.24
2018-05-23T00:25:15.551Z,1011.26
2018-05-23T00:26:15.551Z,1011.30
2018-05-23T00:27:15.544Z,1011.28
2018-05-23T00:28:15.544Z,1011.32
2018-05-23T00:29:15.544Z,1011.30
2018-05-23T00:30:15.543Z,1011.27
2018-05-23T00:31:15.554Z,1011.29
2018-05-23T00:32:15.544Z,1011.30
2018-05-23T00:33:15.539Z,1011.35
2018-05-23T00:34:15.539Z,1011.32
2018-05-23T00:35:15.542Z,1011.36
2018-05-23T00:36:15.542Z,1011.38
2018-05-23T00:37:15.540Z,1011.35
2018-05-23T00:38:15.539Z,1011.34
2018-05-23T00:39:15.535Z,1011.36
2018-05-23T00:40:15.532Z,1011.35
2018-05-23T00:41:15.531Z,1011.33
2018-05-23T00:42:15.530Z,1011.36
2018-05-23T00:43:15.533Z,1011.35
2018-05-23T00:44:15.532Z,1011.35
2018-05-23T00:45:15.532Z,1011.34
2018-05-23T00:46:15.533Z,1011.34
2018-05-23T00:47:15.524Z,1011.32
2018-05-23T00:48:15.524Z,1011.25
2018-05-23T00:49:15.535Z,1011.33
2018-05-23T00:50:15.595Z,1011.32
2018-05-23T00:51:15.520Z,1011.34
2018-05-23T00:52:15.519Z,1011.30
2018-05-23T00:53:15.518Z,1011.34
2018-05-23T00:54:15.518Z,1011.30
2018-05-23T00:55:15.520Z,1011.31
2018-05-23T00:56:15.519Z,1011.29
2018-05-23T00:57:15.519Z,1011.24
2018-05-23T00:58:15.520Z,1011.27
2018-05-23T00:59:15.512Z,1011.24
2018-05-23T01:00:15.512Z,1011.22
2018-05-23T01:01:15.509Z,1011.28
2018-05-23T01:02:15.509Z,1011.22
2018-05-23T01:03:15.511Z,1011.20
2018-05-23T01:04:15.510Z,1011.21
2018-05-23T01:05:15.507Z,1011.23
2018-05-23T01:06:15.504Z,1011.25
2018-05-23T01:07:15.506Z,1011.23
2018-05-23T01:08:15.505Z,1011.21
2018-05-23T01:09:15.506Z,1011.23
2018-05-23T01:10:15.505Z,1011.28
2018-05-23T01:11:15.498Z,1011.25
2018-05-23T01:12:15.497Z,1011.24
2018-05-23T01:13:15.498Z,1011.23
2018-05-23T01:14:15.495Z,1011.21
2018-05-23T01:15:15.498Z,1011.24
2018-05-23T01:16:15.496Z,1011.22
2018-05-23T01:17:15.495Z,1011.29
2018-05-23T01:18:15.494Z,1011.27
2018-05-23T01:19:15.487Z,1011.23
2018-05-23T01:20:15.487Z,1011.28
2018-05-23T01:21:15.490Z,1011.24
2018-05-23T01:22:15.493Z,1011.21
2018-05-23T01:23:15.483Z,1011.25
2018-05-23T01:24:15.482Z,1011.22
2018-05-23T01:25:15.481Z,1011.22
2018-05-23T01:26:15.479Z,1011.23
2018-05-23T01:27:15.483Z,1011.26
2018-05-23T01:28:15.482Z,1011.24
2018-05-23T01:29:15.481Z,1011.20
2018-05-23T01:30:15.480Z,1011.21
2018-05-23T01:31:15.473Z,1011.17
2018-05-23T01:32:15.471Z,1011.20
2018-05-23T01:33:15.471Z,1011.17
2018-05-23T01:34:15.469Z,1011.25
2018-05-23T01:35:15.472Z,1011.24
2018-05-23T01:36:15.471Z,1011.24
2018-05-23T01:37:15.466Z,1011.27
2018-05-23T01:38:15.464Z,1011.27
2018-05-23T01:39:15.466Z,1011.22
2018-05-23T01:40:15.465Z,1011.23
2018-05-23T01:41:15.465Z,1011.25
2018-05-23T01:42:15.464Z,1011.26
2018-05-23T01:43:15.456Z,1011.19
2018-05-23T01:44:15.457Z,1011.23
2018-05-23T01:45:15.458Z,1011.24
2018-05-23T01:46:15.453Z,1011.20
2018-05-23T01:47:15.456Z,1011.24
2018-05-23T01:48:15.454Z,1011.23
2018-05-23T01:49:15.453Z,1011.21
2018-05-23T01:50:15.455Z,1011.22
2018-05-23T01:51:15.446Z,1011.26
2018-05-23T01:52:15.447Z,1011.27
2018-05-23T01:53:15.447Z,1011.25
2018-05-23T01:54:15.447Z,1011.27
2018-05-23T01:55:15.440Z,1011.30
2018-05-23T01:56:15.438Z,1011.27
2018-05-23T01:57:15.441Z,1011.25
2018-05-23T01:58:15.435Z,1011.24
2018-05-23T01:59:15.437Z,1011.21
2018-05-23T02:00:15.443Z,1011.24
2018-05-23T02:01:15.431Z,1011.23
2018-05-23T02:02:15.432Z,1011.32
2018-05-23T02:03:15.431Z,1011.30
2018-05-23T02:04:15.434Z,1011.28
2018-05-23T02:05:15.429Z,1011.34
2018-05-23T02:06:15.427Z,1011.33
2018-05-23T02:07:15.421Z,1011.33
2018-05-23T02:08:15.420Z,1011.33
2018-05-23T02:09:15.422Z,1011.34
2018-05-23T02:10:15.421Z,1011.31
2018-05-23T02:11:15.416Z,1011.36
2018-05-23T02:12:15.413Z,1011.38
2018-05-23T02:13:15.412Z,1011.35
2018-05-23T02:14:15.410Z,1011.34
2018-05-23T02:15:15.414Z,1011.36
2018-05-23T02:16:15.412Z,1011.37
2018-05-23T02:17:15.410Z,1011.36
2018-05-23T02:18:15.409Z,1011.36
2018-05-23T02:19:15.405Z,1011.37
2018-05-23T02:20:15.401Z,1011.37
2018-05-23T02:21:15.399Z,1011.43
2018-05-23T02:22:15.397Z,1011.45
2018-05-23T02:23:15.399Z,1011.43
2018-05-23T02:24:15.402Z,1011.42
2018-05-23T02:25:15.392Z,1011.44
2018-05-23T02:26:15.391Z,1011.41
2018-05-23T02:27:15.394Z,1011.43
2018-05-23T02:28:15.394Z,1011.43
2018-05-23T02:29:15.391Z,1011.41
2018-05-23T02:30:15.390Z,1011.39
2018-05-23T02:31:15.382Z,1011.36
2018-05-23T02:32:15.381Z,1011.35
2018-05-23T02:33:15.379Z,1011.33
2018-05-23T02:34:15.379Z,1011.35
2018-05-23T02:35:15.380Z,1011.29
2018-05-23T02:36:15.380Z,1011.32
2018-05-23T02:37:15.378Z,1011.35
2018-05-23T02:38:15.376Z,1011.36
2018-05-23T02:39:15.375Z,1011.38
2018-05-23T02:40:15.369Z,1011.41
2018-05-23T02:41:15.370Z,1011.42
2018-05-23T02:42:15.369Z,1011.41
2018-05-23T02:43:15.361Z,1011.36
2018-05-23T02:44:15.361Z,1011.37
2018-05-23T02:45:15.361Z,1011.38
2018-05-23T02:46:15.359Z,1011.36
2018-05-23T02:47:15.473Z,1011.38
2018-05-23T02:48:15.360Z,1011.37
2018-05-23T02:49:15.359Z,1011.39
2018-05-23T02:50:15.357Z,1011.37
2018-05-23T02:51:15.360Z,1011.38
2018-05-23T02:52:15.348Z,1011.35
2018-05-23T02:53:15.347Z,1011.39
2018-05-23T02:54:15.345Z,1011.35
2018-05-23T02:55:15.347Z,1011.33
2018-05-23T02:56:15.347Z,1011.32
2018-05-23T02:57:15.341Z,1011.31
2018-05-23T02:58:15.339Z,1011.31
2018-05-23T02:59:15.344Z,1011.34
2018-05-23T03:00:15.341Z,1011.35
2018-05-23T03:01:15.339Z,1011.38
2018-05-23T03:02:15.338Z,1011.38
2018-05-23T03:03:15.330Z,1011.41
2018-05-23T03:04:15.331Z,1011.42
2018-05-23T03:05:15.333Z,1011.44
2018-05-23T03:06:15.325Z,1011.44
2018-05-23T03:07:15.328Z,1011.44
2018-05-23T03:08:15.327Z,1011.46
2018-05-23T03:09:15.326Z,1011.41
2018-05-23T03:10:15.330Z,1011.44
2018-05-23T03:11:15.319Z,1011.40
2018-05-23T03:12:15.315Z,1011.37
2018-05-23T03:13:15.318Z,1011.39
2018-05-23T03:14:15.317Z,1011.40
2018-05-23T03:15:15.312Z,1011.41
2018-05-23T03:16:15.310Z,1011.41
2018-05-23T03:17:15.307Z,1011.38
2018-05-23T03:18:15.305Z,1011.40
2018-05-23T03:19:15.307Z,1011.39
2018-05-23T03:20:15.310Z,1011.43
2018-05-23T03:21:15.304Z,1011.44
2018-05-23T03:22:15.305Z,1011.45
2018-05-23T03:23:15.297Z,1011.49
2018-05-23T03:24:15.296Z,1011.51
2018-05-23T03:25:15.294Z,1011.50
2018-05-23T03:26:15.295Z,1011.59
2018-05-23T03:27:15.295Z,1011.57
2018-05-23T03:28:15.296Z,1011.59
2018-05-23T03:29:15.288Z,1011.62
2018-05-23T03:30:15.287Z,1011.53
2018-05-23T03:31:15.290Z,1011.62
2018-05-23T03:32:15.287Z,1011.64
2018-05-23T03:33:15.285Z,1011.60
2018-05-23T03:34:15.284Z,1011.61
2018-05-23T03:35:15.281Z,1011.66
2018-05-23T03:36:15.276Z,1011.65
2018-05-23T03:37:15.274Z,1011.71
2018-05-23T03:38:15.272Z,1011.71
2018-05-23T03:39:15.274Z,1011.72
2018-05-23T03:40:15.273Z,1011.73
2018-05-23T03:41:15.272Z,1011.72
2018-05-23T03:42:15.272Z,1011.76
2018-05-23T03:43:15.266Z,1011.71
2018-05-23T03:44:15.262Z,1011.73
2018-05-23T03:45:15.269Z,1011.77
2018-05-23T03:46:15.265Z,1011.81
2018-05-23T03:47:15.257Z,1011.81
2018-05-23T03:48:15.257Z,1011.78
2018-05-23T03:49:15.254Z,1011.79
2018-05-23T03:50:15.253Z,1011.78
2018-05-23T03:51:15.254Z,1011.79
2018-05-23T03:52:15.257Z,1011.82
2018-05-23T03:53:15.252Z,1011.82
2018-05-23T03:54:15.250Z,1011.82
2018-05-23T03:55:15.281Z,1011.84
2018-05-23T03:56:15.243Z,1011.84
2018-05-23T03:57:15.240Z,1011.81
2018-05-23T03:58:15.239Z,1011.81
2018-05-23T03:59:15.242Z,1011.83
2018-05-23T04:00:15.239Z,1011.78
2018-05-23T04:01:15.241Z,1011.76
2018-05-23T04:02:15.236Z,1011.82
2018-05-23T04:03:15.235Z,1011.77
2018-05-23T04:04:15.233Z,1011.81
2018-05-23T04:05:15.231Z,1011.80
2018-05-23T04:06:15.229Z,1011.84
2018-05-23T04:07:15.221Z,1011.80
2018-05-23T04:08:15.221Z,1011.81
2018-05-23T04:09:15.219Z,1011.80
2018-05-23T04:10:15.218Z,1011.81
2018-05-23T04:11:15.220Z,1011.86
2018-05-23T04:12:15.219Z,1011.84
2018-05-23T04:13:15.218Z,1011.86
2018-05-23T04:14:15.215Z,1011.86
2018-05-23T04:15:15.208Z,1011.91
2018-05-23T04:16:15.207Z,1011.93
2018-05-23T04:17:15.211Z,1011.96
2018-05-23T04:18:15.218Z,1011.96
2018-05-23T04:19:15.202Z,1011.96
2018-05-23T04:20:15.201Z,1012.01
2018-05-23T04:21:15.201Z,1011.97
2018-05-23T04:22:15.198Z,1011.95
2018-05-23T04:23:15.204Z,1011.99
2018-05-23T04:24:15.200Z,1011.92
2018-05-23T04:25:15.198Z,1011.99
2018-05-23T04:26:15.197Z,1012.00
2018-05-23T04:27:15.189Z,1012.01
2018-05-23T04:28:15.189Z,1011.99
2018-05-23T04:29:15.187Z,1012.02
2018-05-23T04:30:15.186Z,1012.02
2018-05-23T04:31:15.188Z,1012.00
2018-05-23T04:32:15.187Z,1012.06
2018-05-23T04:33:15.182Z,1012.08
2018-05-23T04:34:15.180Z,1012.07
2018-05-23T04:35:15.182Z,1012.09
2018-05-23T04:36:15.180Z,1012.07
2018-05-23T04:37:15.181Z,1012.07
2018-05-23T04:38:15.179Z,1012.07
2018-05-23T04:39:15.242Z,1012.11
2018-05-23T04:40:15.172Z,1012.06
2018-05-23T04:41:15.171Z,1012.13
2018-05-23T04:42:15.169Z,1012.16
2018-05-23T04:43:15.172Z,1012.15
2018-05-23T04:44:15.170Z,1012.19
2018-05-23T04:45:15.168Z,1012.16
2018-05-23T04:46:15.168Z,1012.20
2018-05-23T04:47:15.161Z,1012.21
2018-05-23T04:48:15.160Z,1012.22
2018-05-23T04:49:15.166Z,1012.20
2018-05-23T04:50:15.162Z,1012.21
2018-05-23T04:51:15.156Z,1012.26
2018-05-23T04:52:15.154Z,1012.20
2018-05-23T04:53:15.154Z,1012.24
2018-05-23T04:54:15.156Z,1012.24
2018-05-23T04:55:15.155Z,1012.25
2018-05-23T04:56:15.155Z,1012.26
2018-05-23T04:57:15.154Z,1012.24
2018-05-23T04:58:15.153Z,1012.33
2018-05-23T04:59:15.146Z,1012.25
2018-05-23T05:00:15.149Z,1012.33
2018-05-23T05:01:15.143Z,1012.31
2018-05-23T05:02:15.143Z,1012.32
2018-05-23T05:03:15.145Z,1012.36
2018-05-23T05:04:15.144Z,1012.39
2018-05-23T05:05:15.139Z,1012.41
2018-05-23T05:06:15.138Z,1012.47
2018-05-23T05:07:15.144Z,1012.47
2018-05-23T05:08:15.139Z,1012.50
2018-05-23T05:09:15.138Z,1012.54
2018-05-23T05:10:15.138Z,1012.55
2018-05-23T05:11:15.131Z,1012.56
2018-05-23T05:12:15.131Z,1012.57
2018-05-23T05:13:15.129Z,1012.60
2018-05-23T05:14:15.129Z,1012.57
2018-05-23T05:15:15.130Z,1012.60
2018-05-23T05:16:15.130Z,1012.60
2018-05-23T05:17:15.131Z,1012.63
2018-05-23T05:18:15.128Z,1012.67
2018-05-23T05:19:15.122Z,1012.65
2018-05-23T05:20:15.121Z,1012.69
2018-05-23T05:21:15.126Z,1012.67
2018-05-23T05:22:15.124Z,1012.75
2018-05-23T05:23:15.117Z,1012.74
2018-05-23T05:24:15.117Z,1012.77
2018-05-23T05:25:15.116Z,1012.81
2018-05-23T05:26:15.113Z,1012.85
2018-05-23T05:27:15.117Z,1012.84
2018-05-23T05:28:15.116Z,1012.85
2018-05-23T05:29:15.115Z,1012.84
2018-05-23T05:30:15.117Z,1012.86
2018-05-23T05:31:15.111Z,1012.89
2018-05-23T05:32:15.106Z,1012.88
2018-05-23T05:33:15.106Z,1012.85
2018-05-23T05:34:15.109Z,1012.98
2018-05-23T05:35:15.108Z,1012.93
2018-05-23T05:36:15.110Z,1012.96
2018-05-23T05:37:15.102Z,1013.02
2018-05-23T05:38:15.103Z,1013.02
2018-05-23T05:39:15.105Z,1013.00
2018-05-23T05:40:15.104Z,1013.03
2018-05-23T05:41:15.102Z,1013.03
2018-05-23T05:42:15.101Z,1013.10
2018-05-23T05:43:15.095Z,1013.12
2018-05-23T05:44:15.095Z,1013.11
2018-05-23T05:45:15.094Z,1013.09
2018-05-23T05:46:15.093Z,1013.06
2018-05-23T05:47:15.096Z,1013.08
2018-05-23T05:48:15.095Z,1013.09
2018-05-23T05:49:15.096Z,1013.09
2018-05-23T05:50:15.097Z,1013.09
2018-05-23T05:51:15.088Z,1013.10
2018-05-23T05:52:15.088Z,1013.15
2018-05-23T05:53:15.093Z,1013.18
2018-05-23T05:54:15.091Z,1013.15
2018-05-23T05:55:15.085Z,1013.17
2018-05-23T05:56:15.083Z,1013.18
2018-05-23T05:57:15.082Z,1013.27
2018-05-23T05:58:15.083Z,1013.25
2018-05-23T05:59:15.085Z,1013.30
2018-05-23T06:00:15.088Z,1013.28
2018-05-23T06:01:15.084Z,1013.31
2018-05-23T06:02:15.083Z,1013.30
2018-05-23T06:03:15.077Z,1013.32
2018-05-23T06:04:15.077Z,1013.35
2018-05-23T06:05:15.077Z,1013.34
2018-05-23T06:06:15.076Z,1013.38
2018-05-23T06:07:15.079Z,1013.35
2018-05-23T06:08:15.080Z,1013.35
2018-05-23T06:09:15.074Z,1013.36
2018-05-23T06:10:15.073Z,1013.32
2018-05-23T06:11:15.078Z,1013.31
2018-05-23T06:12:15.077Z,1013.32
2018-05-23T06:13:15.075Z,1013.43
2018-05-23T06:14:15.075Z,1013.43
2018-05-23T06:15:15.070Z,1013.46
2018-05-23T06:16:15.068Z,1013.52
2018-05-23T06:17:15.075Z,1013.46
2018-05-23T06:18:15.068Z,1013.53
2018-05-23T06:19:15.071Z,1013.52
2018-05-23T06:20:15.071Z,1013.50
2018-05-23T06:21:15.072Z,1013.56
2018-05-23T06:22:15.160Z,1013.52
2018-05-23T06:23:15.065Z,1013.56
2018-05-23T06:24:15.066Z,1013.59
2018-05-23T06:25:15.069Z,1013.56
2018-05-23T06:26:15.070Z,1013.58
2018-05-23T06:27:15.068Z,1013.57
2018-05-23T06:28:15.063Z,1013.56
2018-05-23T06:29:15.063Z,1013.54
2018-05-23T06:30:15.074Z,1013.58
2018-05-23T06:31:15.066Z,1013.59
2018-05-23T06:32:15.066Z,1013.62
2018-05-23T06:33:15.066Z,1013.65
2018-05-23T06:34:15.065Z,1013.67
2018-05-23T06:35:15.062Z,1013.64
2018-05-23T06:36:15.062Z,1013.69
2018-05-23T06:37:15.061Z,1013.67
2018-05-23T06:38:15.062Z,1013.66
2018-05-23T06:39:15.065Z,1013.67
2018-05-23T06:40:15.065Z,1013.72
2018-05-23T06:41:15.060Z,1013.72
2018-05-23T06:42:15.063Z,1013.72
2018-05-23T06:43:15.065Z,1013.68
2018-05-23T06:44:15.065Z,1013.75
2018-05-23T06:45:15.064Z,1013.71
2018-05-23T06:46:15.064Z,1013.70
2018-05-23T06:47:15.059Z,1013.70
2018-05-23T06:48:15.060Z,1013.77
2018-05-23T06:49:15.061Z,1013.74
2018-05-23T06:50:15.059Z,1013.77
2018-05-23T06:51:15.064Z,1013.72
2018-05-23T06:52:15.064Z,1013.75
2018-05-23T06:53:15.144Z,1013.75
2018-05-23T06:54:15.066Z,1013.76
2018-05-23T06:55:15.060Z,1013.74
2018-05-23T06:56:15.061Z,1013.79
2018-05-23T06:57:15.067Z,1013.78
2018-05-23T06:58:15.067Z,1013.84
2018-05-23T06:59:15.060Z,1013.87
2018-05-23T07:00:15.066Z,1013.90
2018-05-23T07:01:15.062Z,1013.93
2018-05-23T07:02:15.061Z,1013.89
2018-05-23T07:03:15.068Z,1013.91
2018-05-23T07:04:15.065Z,1013.97
2018-05-23T07:05:15.069Z,1013.97
2018-05-23T07:06:15.067Z,1013.99
2018-05-23T07:07:15.064Z,1014.04
2018-05-23T07:08:15.063Z,1014.06
2018-05-23T07:09:15.063Z,1014.02
2018-05-23T07:10:15.063Z,1014.01
2018-05-23T07:11:15.171Z,1014.06
2018-05-23T07:12:15.069Z,1014.11
2018-05-23T07:13:15.065Z,1014.08
2018-05-23T07:14:15.066Z,1014.10
2018-05-23T07:15:15.071Z,1014.08
2018-05-23T07:16:15.072Z,1014.09
2018-05-23T07:17:15.075Z,1014.10
2018-05-23T07:18:15.073Z,1014.13
2018-05-23T07:19:15.069Z,1014.14
2018-05-23T07:20:15.073Z,1014.09
2018-05-23T07:21:15.072Z,1014.08
2018-05-23T07:22:15.073Z,1014.13
2018-05-23T07:23:15.079Z,1014.15
2018-05-23T07:24:15.081Z,1014.19
2018-05-23T07:25:15.087Z,1014.18
2018-05-23T07:26:15.087Z,1014.17
2018-05-23T07:27:15.080Z,1014.12
2018-05-23T07:28:15.081Z,1014.16
2018-05-23T07:29:15.089Z,1014.19
2018-05-23T07:30:15.091Z,1014.24
2018-05-23T07:31:15.087Z,1014.20
2018-05-23T07:32:15.090Z,1014.24
2018-05-23T07:33:15.092Z,1014.27
2018-05-23T07:34:15.095Z,1014.27
2018-05-23T07:35:15.102Z,1014.25
2018-05-23T07:36:15.103Z,1014.24
2018-05-23T07:37:15.107Z,1014.30
2018-05-23T07:38:15.129Z,1014.29
2018-05-23T07:39:15.108Z,1014.27
2018-05-23T07:40:15.109Z,1014.28
2018-05-23T07:41:15.111Z,1014.22
2018-05-23T07:42:15.118Z,1014.20
2018-05-23T07:43:15.121Z,1014.23
2018-05-23T07:44:15.125Z,1014.24
2018-05-23T07:45:15.123Z,1014.28
2018-05-23T07:46:15.127Z,1014.29
2018-05-23T07:47:15.134Z,1014.25
2018-05-23T07:48:15.138Z,1014.22
2018-05-23T07:49:15.140Z,1014.21
2018-05-23T07:50:15.148Z,1014.21
2018-05-23T07:51:15.143Z,1014.20
2018-05-23T07:52:15.145Z,1014.15
2018-05-23T07:53:15.149Z,1014.15
2018-05-23T07:54:15.150Z,1014.16
2018-05-23T07:55:15.159Z,1014.18
2018-05-23T07:56:15.161Z,1014.13
2018-05-23T07:57:15.164Z,1014.21
2018-05-23T07:58:15.168Z,1014.26
2018-05-23T07:59:15.166Z,1014.36
2018-05-23T08:00:15.170Z,1014.39
2018-05-23T08:01:15.183Z,1014.39
2018-05-23T08:02:15.185Z,1014.40
2018-05-23T08:03:15.180Z,1014.45
2018-05-23T08:04:15.186Z,1014.44
2018-05-23T08:05:15.188Z,1014.50
2018-05-23T08:06:15.193Z,1014.40
2018-05-23T08:07:15.205Z,1014.40
2018-05-23T08:08:15.205Z,1014.39
2018-05-23T08:09:15.260Z,1014.38
2018-05-23T08:10:15.216Z,1014.41
2018-05-23T08:11:15.214Z,1014.43
2018-05-23T08:12:15.222Z,1014.50
2018-05-23T08:13:15.224Z,1014.51
2018-05-23T08:14:15.231Z,1014.51
2018-05-23T08:15:15.238Z,1014.54
2018-05-23T08:16:15.244Z,1014.61
2018-05-23T08:17:15.245Z,1014.63
2018-05-23T08:18:15.251Z,1014.67
2018-05-23T08:19:15.260Z,1014.64
2018-05-23T08:20:15.265Z,1014.68
2018-05-23T08:21:15.273Z,1014.63
2018-05-23T08:22:15.278Z,1014.75
2018-05-23T08:23:15.277Z,1014.79
2018-05-23T08:24:15.371Z,1014.80
2018-05-23T08:25:15.289Z,1014.80
2018-05-23T08:26:15.296Z,1014.86
2018-05-23T08:27:15.305Z,1014.87
2018-05-23T08:28:15.310Z,1014.88
2018-05-23T08:29:15.321Z,1014.92
2018-05-23T08:30:15.324Z,1015.01
2018-05-23T08:31:15.324Z,1015.08
2018-05-23T08:32:15.331Z,1015.18
2018-05-23T08:33:15.343Z,1015.19
2018-05-23T08:34:15.348Z,1015.07
2018-05-23T08:35:15.350Z,1015.12
2018-05-23T08:36:15.356Z,1015.03
2018-05-23T08:37:15.362Z,1015.32
2018-05-23T08:38:15.370Z,1015.17
2018-05-23T08:39:15.380Z,1015.48
2018-05-23T08:40:15.386Z,1015.65
2018-05-23T08:41:15.394Z,1015.67
2018-05-23T08:42:15.404Z,1015.63
2018-05-23T08:43:15.409Z,1015.80
2018-05-23T08:44:15.412Z,1015.73
2018-05-23T08:45:15.421Z,1015.47
2018-05-23T08:46:15.436Z,1015.57
2018-05-23T08:47:15.442Z,1015.77
2018-05-23T08:48:15.453Z,1015.87
2018-05-23T08:49:15.455Z,1015.51
2018-05-23T08:50:15.464Z,1015.61
2018-05-23T08:51:15.479Z,1015.57
2018-05-23T08:52:15.487Z,1015.83
2018-05-23T08:53:15.497Z,1015.37
2018-05-23T08:54:15.506Z,1015.21
2018-05-23T08:55:15.511Z,1015.39
2018-05-23T08:56:15.521Z,1015.23
2018-05-23T08:57:15.532Z,1016.44
2018-05-23T08:58:15.542Z,1016.24
2018-05-23T08:59:15.555Z,1016.41
2018-05-23T09:00:15.565Z,1016.40
2018-05-23T09:01:15.577Z,1016.52
2018-05-23T09:02:15.590Z,1016.51
2018-05-23T09:03:15.593Z,1016.53
2018-05-23T09:04:15.604Z,1016.38
2018-05-23T09:05:15.620Z,1016.42
2018-05-23T09:06:15.632Z,1015.96
2018-05-23T09:07:15.639Z,1016.60
2018-05-23T09:08:15.652Z,1016.67
2018-05-23T09:09:15.664Z,1016.94
2018-05-23T09:10:15.676Z,1016.40
2018-05-23T09:11:15.697Z,1016.27
2018-05-23T09:12:15.768Z,1016.38
2018-05-23T09:13:15.719Z,1017.01
2018-05-23T09:14:15.733Z,1016.83
2018-05-23T09:15:15.743Z,1016.81
2018-05-23T09:16:15.757Z,1016.74
2018-05-23T09:17:15.858Z,1016.69
2018-05-23T09:18:15.784Z,1016.65
2018-05-23T09:19:15.803Z,1016.70
2018-05-23T09:20:15.816Z,1016.64
2018-05-23T09:21:15.826Z,1016.60
2018-05-23T09:22:15.842Z,1016.58
2018-05-23T09:23:15.858Z,1016.55
2018-05-23T09:24:15.874Z,1016.33
2018-05-23T09:25:15.888Z,1016.33
2018-05-23T09:26:15.903Z,1016.39
2018-05-23T09:27:15.912Z,1016.39
2018-05-23T09:28:15.927Z,1015.99
2018-05-23T09:29:15.943Z,1015.97
2018-05-23T09:30:15.957Z,1015.68
2018-05-23T09:31:15.976Z,1015.99
2018-05-23T09:32:16.005Z,1015.66
2018-05-23T09:33:16.006Z,1015.76
2018-05-23T09:34:16.021Z,1015.74
2018-05-23T09:35:16.033Z,1015.75
2018-05-23T09:36:16.046Z,1015.67
2018-05-23T09:37:16.063Z,1015.99
2018-05-23T09:38:16.078Z,1015.97
2018-05-23T09:39:16.128Z,1015.95
2018-05-23T09:40:16.160Z,1016.05
2018-05-23T09:41:16.115Z,1015.96
2018-05-23T09:42:16.131Z,1015.99
2018-05-23T09:43:16.149Z,1015.99
2018-05-23T09:44:16.167Z,1015.93
2018-05-23T09:45:16.243Z,1015.90
2018-05-23T09:46:16.194Z,1016.04
2018-05-23T09:47:16.202Z,1016.03
2018-05-23T09:48:16.216Z,1015.98
2018-05-23T09:49:16.232Z,1015.89
2018-05-23T09:50:16.248Z,1015.94
2018-05-23T09:51:16.266Z,1015.78
2018-05-23T09:52:16.283Z,1015.62
2018-05-23T09:53:16.294Z,1015.59
2018-05-23T09:54:16.309Z,1015.58
2018-05-23T09:55:16.326Z,1015.59
2018-05-23T09:56:16.341Z,1015.59
2018-05-23T09:57:16.357Z,1015.62
2018-05-23T09:58:16.371Z,1015.75
2018-05-23T09:59:16.379Z,1015.87
2018-05-23T10:00:16.393Z,1015.84
2018-05-23T10:01:16.407Z,1015.73
2018-05-23T10:02:16.422Z,1015.88
2018-05-23T10:03:16.439Z,1015.82
2018-05-23T10:04:16.452Z,1015.92
2018-05-23T10:05:16.465Z,1015.95
2018-05-23T10:06:16.478Z,1015.95
2018-05-23T10:07:16.486Z,1015.97
2018-05-23T10:08:16.500Z,1015.97
2018-05-23T10:09:16.520Z,1015.98
2018-05-23T10:10:16.532Z,1016.00
2018-05-23T10:11:16.540Z,1015.92
2018-05-23T10:12:16.556Z,1016.00
2018-05-23T10:13:16.573Z,1015.88
2018-05-23T10:14:16.583Z,1015.84
2018-05-23T10:15:16.601Z,1015.87
2018-05-23T10:16:16.621Z,1015.86
2018-05-23T10:17:16.630Z,1015.81
2018-05-23T10:18:16.645Z,1015.87
2018-05-23T10:19:16.659Z,1015.84
2018-05-23T10:20:16.668Z,1015.88
2018-05-23T10:21:16.682Z,1015.83
2018-05-23T10:22:16.697Z,1015.79
2018-05-23T10:23:16.713Z,1015.81
2018-05-23T10:24:16.730Z,1015.79
2018-05-23T10:25:16.737Z,1015.83
2018-05-23T10:26:16.835Z,1015.83
2018-05-23T10:27:16.769Z,1015.79
2018-05-23T10:28:16.783Z,1015.82
2018-05-23T10:29:16.797Z,1015.78
2018-05-23T10:30:16.811Z,1015.72
2018-05-23T10:31:16.818Z,1015.79
2018-05-23T10:32:16.832Z,1015.72
2018-05-23T10:33:16.912Z,1015.73
2018-05-23T10:34:16.861Z,1015.72
2018-05-23T10:35:16.870Z,1015.68
2018-05-23T10:36:16.881Z,1015.67
2018-05-23T10:37:16.894Z,1015.66
2018-05-23T10:38:16.904Z,1015.68
2018-05-23T10:39:16.920Z,1015.66
2018-05-23T10:40:16.931Z,1015.69
2018-05-23T10:41:16.949Z,1015.69
2018-05-23T10:42:16.946Z,1015.72
2018-05-23T10:43:16.961Z,1015.70
2018-05-23T10:44:16.972Z,1015.67
2018-05-23T10:45:16.980Z,1015.63
2018-05-23T10:46:16.993Z,1015.57
2018-05-23T10:47:16.993Z,1015.50
2018-05-23T10:48:17.005Z,1015.54
2018-05-23T10:49:17.012Z,1015.52
2018-05-23T10:50:17.023Z,1015.54
2018-05-23T10:51:17.034Z,1015.51
2018-05-23T10:52:17.041Z,1015.56
2018-05-23T10:53:17.050Z,1015.53
2018-05-23T10:54:17.058Z,1015.63
2018-05-23T10:55:17.096Z,1015.60
2018-05-23T10:56:17.079Z,1015.60
2018-05-23T10:57:17.150Z,1015.65
2018-05-23T10:58:17.089Z,1015.56
2018-05-23T10:59:17.089Z,1015.61
2018-05-23T11:00:17.095Z,1015.55
2018-05-23T11:01:17.104Z,1015.65
2018-05-23T11:02:17.111Z,1015.55
2018-05-23T11:03:17.120Z,1015.47
2018-05-23T11:04:17.126Z,1015.46
2018-05-23T11:05:17.133Z,1015.51
2018-05-23T11:06:17.139Z,1015.50
2018-05-23T11:07:17.140Z,1015.58
2018-05-23T11:08:17.146Z,1015.52
2018-05-23T11:09:17.154Z,1015.50
2018-05-23T11:10:17.156Z,1015.53
2018-05-23T11:11:17.168Z,1015.57
2018-05-23T11:12:17.173Z,1015.64
2018-05-23T11:13:17.174Z,1015.60
2018-05-23T11:14:17.178Z,1015.66
2018-05-23T11:15:17.213Z,1015.61
2018-05-23T11:16:17.192Z,1015.65
2018-05-23T11:17:17.197Z,1015.71
2018-05-23T11:18:17.202Z,1015.74
2018-05-23T11:19:17.201Z,1015.65
2018-05-23T11:20:17.206Z,1015.73
2018-05-23T11:21:17.217Z,1015.69
2018-05-23T11:22:17.215Z,1015.71
2018-05-23T11:23:17.223Z,1015.73
2018-05-23T11:24:17.228Z,1015.70
2018-05-23T11:25:17.233Z,1015.75
2018-05-23T11:26:17.238Z,1015.77
2018-05-23T11:27:17.235Z,1015.80
2018-05-23T11:28:17.241Z,1015.85
2018-05-23T11:29:17.249Z,1015.81
2018-05-23T11:30:17.255Z,1015.83
2018-05-23T11:31:17.251Z,1015.78
2018-05-23T11:32:17.255Z,1015.90
2018-05-23T11:33:17.259Z,1015.75
2018-05-23T11:34:17.263Z,1015.75
2018-05-23T11:35:17.270Z,1015.84
2018-05-23T11:36:17.274Z,1015.81
2018-05-23T11:37:17.328Z,1015.88
2018-05-23T11:38:17.283Z,1015.74
2018-05-23T11:39:17.283Z,1015.83
2018-05-23T11:40:17.284Z,1015.75
2018-05-23T11:41:17.291Z,1015.76
2018-05-23T11:42:17.292Z,1015.77
2018-05-23T11:43:17.300Z,1015.69
2018-05-23T11:44:17.303Z,1015.76
2018-05-23T11:45:17.301Z,1015.71
2018-05-23T11:46:17.305Z,1015.70
2018-05-23T11:47:17.311Z,1015.72
2018-05-23T11:48:17.314Z,1015.66
2018-05-23T11:49:17.319Z,1015.74
2018-05-23T11:50:17.324Z,1015.72
2018-05-23T11:51:17.319Z,1015.81
2018-05-23T11:52:17.409Z,1015.74
2018-05-23T11:53:17.325Z,1015.81
2018-05-23T11:54:17.328Z,1015.76
2018-05-23T11:55:17.335Z,1015.82
2018-05-23T11:56:17.339Z,1015.78
2018-05-23T11:57:17.344Z,1015.78
2018-05-23T11:58:17.342Z,1015.72
2018-05-23T11:59:17.340Z,1015.81
2018-05-23T12:00:17.342Z,1015.80
2018-05-23T12:01:17.352Z,1015.78
2018-05-23T12:02:17.352Z,1015.79
2018-05-23T12:03:17.349Z,1015.75
2018-05-23T12:04:17.353Z,1015.70
2018-05-23T12:05:17.354Z,1015.69